sensor_id;sensor_type;location;lat;lon;timestamp;temperature;humidity
40636;DHT22;26642;55.766;37.828;2023-07-02T00:01:38;22.90;74.70
40636;DHT22;26642;55.766;37.828;2023-07-02T00:04:04;22.90;74.60
40636;DHT22;26642;55.766;37.828;2023-07-02T00:06:30;22.90;74.60
40636;DHT22;26642;55.766;37.828;2023-07-02T00:08:58;22.90;74.80
40636;DHT22;26642;55.766;37.828;2023-07-02T00:11:24;22.90;74.60
40636;DHT22;26642;55.766;37.828;2023-07-02T00:13:49;22.90;74.80
40636;DHT22;26642;55.766;37.828;2023-07-02T00:16:15;22.90;74.80
40636;DHT22;26642;55.766;37.828;2023-07-02T00:18:41;22.80;74.70
40636;DHT22;26642;55.766;37.828;2023-07-02T00:21:07;22.90;74.80
40636;DHT22;26642;55.766;37.828;2023-07-02T00:23:33;22.90;74.80
40636;DHT22;26642;55.766;37.828;2023-07-02T00:25:59;22.90;74.70
40636;DHT22;26642;55.766;37.828;2023-07-02T00:28:25;22.90;74.80
40636;DHT22;26642;55.766;37.828;2023-07-02T00:30:51;22.90;74.70
40636;DHT22;26642;55.766;37.828;2023-07-02T00:33:17;22.90;74.80
40636;DHT22;26642;55.766;37.828;2023-07-02T00:35:43;22.90;74.70
40636;DHT22;26642;55.766;37.828;2023-07-02T00:38:09;22.90;74.80
40636;DHT22;26642;55.766;37.828;2023-07-02T00:40:35;22.90;74.70
40636;DHT22;26642;55.766;37.828;2023-07-02T00:43:02;22.90;74.80
40636;DHT22;26642;55.766;37.828;2023-07-02T00:45:28;22.80;74.90
40636;DHT22;26642;55.766;37.828;2023-07-02T00:47:54;22.90;74.90
40636;DHT22;26642;55.766;37.828;2023-07-02T00:50:25;22.80;75.00
40636;DHT22;26642;55.766;37.828;2023-07-02T00:52:51;22.80;75.20
40636;DHT22;26642;55.766;37.828;2023-07-02T00:55:19;22.80;75.20
40636;DHT22;26642;55.766;37.828;2023-07-02T00:57:47;22.80;75.20
40636;DHT22;26642;55.766;37.828;2023-07-02T01:00:13;22.80;75.20
40636;DHT22;26642;55.766;37.828;2023-07-02T01:02:39;22.80;75.30
40636;DHT22;26642;55.766;37.828;2023-07-02T01:05:14;22.80;75.30
40636;DHT22;26642;55.766;37.828;2023-07-02T01:07:41;22.80;75.40
40636;DHT22;26642;55.766;37.828;2023-07-02T01:10:07;22.70;75.40
40636;DHT22;26642;55.766;37.828;2023-07-02T01:12:35;22.70;75.50
40636;DHT22;26642;55.766;37.828;2023-07-02T01:15:03;22.70;75.60
40636;DHT22;26642;55.766;37.828;2023-07-02T01:17:32;22.70;75.70
40636;DHT22;26642;55.766;37.828;2023-07-02T01:20:09;22.70;75.80
40636;DHT22;26642;55.766;37.828;2023-07-02T01:22:35;22.70;75.90
40636;DHT22;26642;55.766;37.828;2023-07-02T01:25:01;22.70;76.00
40636;DHT22;26642;55.766;37.828;2023-07-02T01:27:29;22.70;76.10
40636;DHT22;26642;55.766;37.828;2023-07-02T01:29:55;22.70;76.10
40636;DHT22;26642;55.766;37.828;2023-07-02T01:32:22;22.70;76.10
40636;DHT22;26642;55.766;37.828;2023-07-02T01:34:50;22.70;76.00
40636;DHT22;26642;55.766;37.828;2023-07-02T01:37:19;22.80;76.00
40636;DHT22;26642;55.766;37.828;2023-07-02T01:39:45;22.80;75.90
40636;DHT22;26642;55.766;37.828;2023-07-02T01:42:13;22.80;76.00
40636;DHT22;26642;55.766;37.828;2023-07-02T01:44:47;22.80;76.00
40636;DHT22;26642;55.766;37.828;2023-07-02T01:47:13;22.80;75.90
40636;DHT22;26642;55.766;37.828;2023-07-02T01:49:39;22.80;75.90
40636;DHT22;26642;55.766;37.828;2023-07-02T01:52:06;22.80;75.90
40636;DHT22;26642;55.766;37.828;2023-07-02T01:54:34;22.80;76.50
40636;DHT22;26642;55.766;37.828;2023-07-02T01:57:01;22.80;75.90
40636;DHT22;26642;55.766;37.828;2023-07-02T01:59:27;22.80;75.90
40636;DHT22;26642;55.766;37.828;2023-07-02T02:01:53;22.80;76.10
40636;DHT22;26642;55.766;37.828;2023-07-02T02:04:19;22.70;76.20
40636;DHT22;26642;55.766;37.828;2023-07-02T02:06:45;22.80;76.20
40636;DHT22;26642;55.766;37.828;2023-07-02T02:09:11;22.70;76.20
40636;DHT22;26642;55.766;37.828;2023-07-02T02:11:43;22.70;76.20
40636;DHT22;26642;55.766;37.828;2023-07-02T02:14:09;22.80;76.40
40636;DHT22;26642;55.766;37.828;2023-07-02T02:16:35;22.80;76.40
40636;DHT22;26642;55.766;37.828;2023-07-02T02:19:02;22.80;76.40
40636;DHT22;26642;55.766;37.828;2023-07-02T02:21:28;22.90;76.30
40636;DHT22;26642;55.766;37.828;2023-07-02T02:23:54;23.00;76.10
40636;DHT22;26642;55.766;37.828;2023-07-02T02:26:21;23.00;76.10
40636;DHT22;26642;55.766;37.828;2023-07-02T02:28:48;23.10;76.00
40636;DHT22;26642;55.766;37.828;2023-07-02T02:31:15;23.20;75.80
40636;DHT22;26642;55.766;37.828;2023-07-02T02:33:41;23.30;75.60
40636;DHT22;26642;55.766;37.828;2023-07-02T02:36:07;23.40;75.40
40636;DHT22;26642;55.766;37.828;2023-07-02T02:38:34;23.50;75.40
40636;DHT22;26642;55.766;37.828;2023-07-02T02:41:01;23.60;75.10
40636;DHT22;26642;55.766;37.828;2023-07-02T02:43:31;23.60;75.00
40636;DHT22;26642;55.766;37.828;2023-07-02T02:45:58;23.70;75.50
40636;DHT22;26642;55.766;37.828;2023-07-02T02:48:24;23.80;74.70
40636;DHT22;26642;55.766;37.828;2023-07-02T02:50:50;23.90;74.60
40636;DHT22;26642;55.766;37.828;2023-07-02T02:53:16;23.90;74.40
40636;DHT22;26642;55.766;37.828;2023-07-02T02:55:42;24.00;74.30
40636;DHT22;26642;55.766;37.828;2023-07-02T02:58:08;24.10;74.30
40636;DHT22;26642;55.766;37.828;2023-07-02T03:00:34;24.10;73.80
40636;DHT22;26642;55.766;37.828;2023-07-02T03:03:00;24.20;73.70
40636;DHT22;26642;55.766;37.828;2023-07-02T03:05:26;24.20;73.50
40636;DHT22;26642;55.766;37.828;2023-07-02T03:07:53;24.30;73.30
40636;DHT22;26642;55.766;37.828;2023-07-02T03:10:19;24.40;73.40
40636;DHT22;26642;55.766;37.828;2023-07-02T03:12:46;24.40;73.30
40636;DHT22;26642;55.766;37.828;2023-07-02T03:15:12;24.40;73.50
40636;DHT22;26642;55.766;37.828;2023-07-02T03:17:38;24.40;73.50
40636;DHT22;26642;55.766;37.828;2023-07-02T03:20:05;24.40;73.50
40636;DHT22;26642;55.766;37.828;2023-07-02T03:22:31;24.40;73.30
40636;DHT22;26642;55.766;37.828;2023-07-02T03:24:57;24.40;73.40
40636;DHT22;26642;55.766;37.828;2023-07-02T03:27:23;24.40;73.40
40636;DHT22;26642;55.766;37.828;2023-07-02T03:29:49;24.30;73.60
40636;DHT22;26642;55.766;37.828;2023-07-02T03:32:15;24.20;73.40
40636;DHT22;26642;55.766;37.828;2023-07-02T03:34:41;24.20;73.40
40636;DHT22;26642;55.766;37.828;2023-07-02T03:37:07;24.10;73.30
40636;DHT22;26642;55.766;37.828;2023-07-02T03:39:33;24.00;73.50
40636;DHT22;26642;55.766;37.828;2023-07-02T03:41:59;24.00;73.60
40636;DHT22;26642;55.766;37.828;2023-07-02T03:44:25;23.90;73.60
40636;DHT22;26642;55.766;37.828;2023-07-02T03:46:51;23.90;73.70
40636;DHT22;26642;55.766;37.828;2023-07-02T03:49:17;23.90;73.90
40636;DHT22;26642;55.766;37.828;2023-07-02T03:51:43;23.90;73.90
40636;DHT22;26642;55.766;37.828;2023-07-02T03:54:09;24.00;73.60
40636;DHT22;26642;55.766;37.828;2023-07-02T03:56:35;24.00;73.50
40636;DHT22;26642;55.766;37.828;2023-07-02T03:59:00;24.00;73.20
40636;DHT22;26642;55.766;37.828;2023-07-02T04:01:26;24.10;73.10
40636;DHT22;26642;55.766;37.828;2023-07-02T04:03:53;24.10;73.10
40636;DHT22;26642;55.766;37.828;2023-07-02T04:06:19;24.00;73.10
40636;DHT22;26642;55.766;37.828;2023-07-02T04:08:45;23.90;73.30
40636;DHT22;26642;55.766;37.828;2023-07-02T04:11:12;23.90;73.10
40636;DHT22;26642;55.766;37.828;2023-07-02T04:13:38;23.90;73.10
40636;DHT22;26642;55.766;37.828;2023-07-02T04:16:05;24.00;73.10
40636;DHT22;26642;55.766;37.828;2023-07-02T04:18:31;24.00;73.10
40636;DHT22;26642;55.766;37.828;2023-07-02T04:20:58;24.00;73.10
40636;DHT22;26642;55.766;37.828;2023-07-02T04:23:25;24.00;72.90
40636;DHT22;26642;55.766;37.828;2023-07-02T04:25:51;24.00;72.90
40636;DHT22;26642;55.766;37.828;2023-07-02T04:28:17;23.90;72.80
40636;DHT22;26642;55.766;37.828;2023-07-02T04:30:43;23.90;72.90
40636;DHT22;26642;55.766;37.828;2023-07-02T04:33:09;24.00;72.90
40636;DHT22;26642;55.766;37.828;2023-07-02T04:35:40;24.00;72.70
40636;DHT22;26642;55.766;37.828;2023-07-02T04:38:06;24.10;72.60
40636;DHT22;26642;55.766;37.828;2023-07-02T04:40:35;24.30;72.80
40636;DHT22;26642;55.766;37.828;2023-07-02T04:43:01;24.40;72.40
40636;DHT22;26642;55.766;37.828;2023-07-02T04:45:27;24.40;72.30
40636;DHT22;26642;55.766;37.828;2023-07-02T04:48:01;24.40;72.50
40636;DHT22;26642;55.766;37.828;2023-07-02T04:50:27;24.50;72.30
40636;DHT22;26642;55.766;37.828;2023-07-02T04:52:53;24.50;72.20
40636;DHT22;26642;55.766;37.828;2023-07-02T04:55:19;24.50;72.00
40636;DHT22;26642;55.766;37.828;2023-07-02T04:57:45;24.40;72.00
40636;DHT22;26642;55.766;37.828;2023-07-02T05:00:11;24.40;71.80
40636;DHT22;26642;55.766;37.828;2023-07-02T05:02:38;24.40;71.70
40636;DHT22;26642;55.766;37.828;2023-07-02T05:05:04;24.40;71.70
40636;DHT22;26642;55.766;37.828;2023-07-02T05:07:31;24.60;71.90
40636;DHT22;26642;55.766;37.828;2023-07-02T05:09:57;24.70;71.40
40636;DHT22;26642;55.766;37.828;2023-07-02T05:12:23;24.80;71.20
40636;DHT22;26642;55.766;37.828;2023-07-02T05:14:49;24.80;70.90
40636;DHT22;26642;55.766;37.828;2023-07-02T05:17:15;24.80;70.80
40636;DHT22;26642;55.766;37.828;2023-07-02T05:19:41;24.90;71.00
40636;DHT22;26642;55.766;37.828;2023-07-02T05:22:10;25.10;70.10
40636;DHT22;26642;55.766;37.828;2023-07-02T05:24:36;25.30;69.50
40636;DHT22;26642;55.766;37.828;2023-07-02T05:27:04;25.30;69.20
40636;DHT22;26642;55.766;37.828;2023-07-02T05:29:30;25.50;69.10
40636;DHT22;26642;55.766;37.828;2023-07-02T05:31:56;25.60;68.70
40636;DHT22;26642;55.766;37.828;2023-07-02T05:34:22;25.60;68.50
40636;DHT22;26642;55.766;37.828;2023-07-02T05:36:48;25.80;68.30
40636;DHT22;26642;55.766;37.828;2023-07-02T05:39:13;25.80;67.90
40636;DHT22;26642;55.766;37.828;2023-07-02T05:41:39;26.00;67.80
40636;DHT22;26642;55.766;37.828;2023-07-02T05:44:05;26.10;67.50
40636;DHT22;26642;55.766;37.828;2023-07-02T05:46:31;26.20;67.20
40636;DHT22;26642;55.766;37.828;2023-07-02T05:48:57;26.30;67.20
40636;DHT22;26642;55.766;37.828;2023-07-02T05:51:24;26.40;66.80
40636;DHT22;26642;55.766;37.828;2023-07-02T05:53:51;26.40;66.50
40636;DHT22;26642;55.766;37.828;2023-07-02T05:56:17;26.40;66.40
40636;DHT22;26642;55.766;37.828;2023-07-02T05:58:45;26.60;66.30
40636;DHT22;26642;55.766;37.828;2023-07-02T06:01:11;26.70;66.20
40636;DHT22;26642;55.766;37.828;2023-07-02T06:03:37;26.70;65.80
40636;DHT22;26642;55.766;37.828;2023-07-02T06:06:03;26.80;65.60
40636;DHT22;26642;55.766;37.828;2023-07-02T06:08:29;26.90;65.20
40636;DHT22;26642;55.766;37.828;2023-07-02T06:10:55;26.90;65.20
40636;DHT22;26642;55.766;37.828;2023-07-02T06:13:21;26.90;65.00
40636;DHT22;26642;55.766;37.828;2023-07-02T06:15:47;26.90;65.10
40636;DHT22;26642;55.766;37.828;2023-07-02T06:18:13;27.00;65.10
40636;DHT22;26642;55.766;37.828;2023-07-02T06:20:39;27.00;65.00
40636;DHT22;26642;55.766;37.828;2023-07-02T06:23:05;27.10;64.90
40636;DHT22;26642;55.766;37.828;2023-07-02T06:25:31;27.20;64.70
40636;DHT22;26642;55.766;37.828;2023-07-02T06:27:57;27.20;64.40
40636;DHT22;26642;55.766;37.828;2023-07-02T06:30:24;27.30;64.10
40636;DHT22;26642;55.766;37.828;2023-07-02T06:32:50;27.30;64.00
40636;DHT22;26642;55.766;37.828;2023-07-02T06:35:16;27.30;63.90
40636;DHT22;26642;55.766;37.828;2023-07-02T06:37:43;27.40;63.90
40636;DHT22;26642;55.766;37.828;2023-07-02T06:40:09;27.40;63.50
40636;DHT22;26642;55.766;37.828;2023-07-02T06:42:35;27.50;63.60
40636;DHT22;26642;55.766;37.828;2023-07-02T06:45:05;27.50;63.40
40636;DHT22;26642;55.766;37.828;2023-07-02T06:47:31;27.50;63.40
40636;DHT22;26642;55.766;37.828;2023-07-02T06:49:57;27.50;63.60
40636;DHT22;26642;55.766;37.828;2023-07-02T06:52:23;27.50;63.40
40636;DHT22;26642;55.766;37.828;2023-07-02T06:54:50;27.50;62.90
40636;DHT22;26642;55.766;37.828;2023-07-02T06:57:16;27.50;62.70
40636;DHT22;26642;55.766;37.828;2023-07-02T06:59:42;27.50;62.80
40636;DHT22;26642;55.766;37.828;2023-07-02T07:02:08;27.60;62.80
40636;DHT22;26642;55.766;37.828;2023-07-02T07:04:34;27.60;62.80
40636;DHT22;26642;55.766;37.828;2023-07-02T07:07:01;27.70;62.70
40636;DHT22;26642;55.766;37.828;2023-07-02T07:09:29;27.70;62.30
40636;DHT22;26642;55.766;37.828;2023-07-02T07:11:55;27.70;62.30
40636;DHT22;26642;55.766;37.828;2023-07-02T07:14:21;27.70;62.30
40636;DHT22;26642;55.766;37.828;2023-07-02T07:16:47;27.80;62.40
40636;DHT22;26642;55.766;37.828;2023-07-02T07:19:13;27.80;62.30
40636;DHT22;26642;55.766;37.828;2023-07-02T07:21:39;27.80;62.30
40636;DHT22;26642;55.766;37.828;2023-07-02T07:24:06;27.80;62.20
40636;DHT22;26642;55.766;37.828;2023-07-02T07:26:32;27.80;62.20
40636;DHT22;26642;55.766;37.828;2023-07-02T07:28:58;27.80;62.20
40636;DHT22;26642;55.766;37.828;2023-07-02T07:31:24;27.80;62.00
40636;DHT22;26642;55.766;37.828;2023-07-02T07:33:50;27.80;61.90
40636;DHT22;26642;55.766;37.828;2023-07-02T07:36:16;27.70;61.90
40636;DHT22;26642;55.766;37.828;2023-07-02T07:38:45;27.70;62.00
40636;DHT22;26642;55.766;37.828;2023-07-02T07:41:11;27.70;62.00
40636;DHT22;26642;55.766;37.828;2023-07-02T07:43:37;27.70;62.00
40636;DHT22;26642;55.766;37.828;2023-07-02T07:46:03;27.70;62.00
40636;DHT22;26642;55.766;37.828;2023-07-02T07:48:29;27.70;61.90
40636;DHT22;26642;55.766;37.828;2023-07-02T07:50:55;27.70;62.00
40636;DHT22;26642;55.766;37.828;2023-07-02T07:53:21;27.70;61.90
40636;DHT22;26642;55.766;37.828;2023-07-02T07:55:47;27.70;61.50
40636;DHT22;26642;55.766;37.828;2023-07-02T07:58:13;27.70;61.80
40636;DHT22;26642;55.766;37.828;2023-07-02T08:00:38;27.60;61.70
40636;DHT22;26642;55.766;37.828;2023-07-02T08:03:04;27.70;61.70
40636;DHT22;26642;55.766;37.828;2023-07-02T08:05:31;27.70;61.90
40636;DHT22;26642;55.766;37.828;2023-07-02T08:07:57;27.60;61.50
40636;DHT22;26642;55.766;37.828;2023-07-02T08:10:23;27.60;61.60
40636;DHT22;26642;55.766;37.828;2023-07-02T08:12:51;27.60;61.50
40636;DHT22;26642;55.766;37.828;2023-07-02T08:15:20;27.60;61.60
40636;DHT22;26642;55.766;37.828;2023-07-02T08:17:45;27.60;61.60
40636;DHT22;26642;55.766;37.828;2023-07-02T08:20:11;27.60;61.60
40636;DHT22;26642;55.766;37.828;2023-07-02T08:22:38;27.60;61.70
40636;DHT22;26642;55.766;37.828;2023-07-02T08:25:05;27.50;61.60
40636;DHT22;26642;55.766;37.828;2023-07-02T08:27:31;27.50;61.60
40636;DHT22;26642;55.766;37.828;2023-07-02T08:29:57;27.50;61.40
40636;DHT22;26642;55.766;37.828;2023-07-02T08:32:23;27.50;61.20
40636;DHT22;26642;55.766;37.828;2023-07-02T08:34:49;27.50;61.10
40636;DHT22;26642;55.766;37.828;2023-07-02T08:37:17;27.40;60.90
40636;DHT22;26642;55.766;37.828;2023-07-02T08:39:43;27.40;60.70
40636;DHT22;26642;55.766;37.828;2023-07-02T08:42:09;27.40;60.60
40636;DHT22;26642;55.766;37.828;2023-07-02T08:44:35;27.40;60.50
40636;DHT22;26642;55.766;37.828;2023-07-02T08:47:02;27.40;60.30
40636;DHT22;26642;55.766;37.828;2023-07-02T08:49:28;27.30;59.80
40636;DHT22;26642;55.766;37.828;2023-07-02T08:51:54;27.30;59.20
40636;DHT22;26642;55.766;37.828;2023-07-02T08:54:20;27.20;59.40
40636;DHT22;26642;55.766;37.828;2023-07-02T08:56:47;27.20;59.60
40636;DHT22;26642;55.766;37.828;2023-07-02T08:59:13;27.20;59.40
40636;DHT22;26642;55.766;37.828;2023-07-02T09:01:52;27.20;59.00
40636;DHT22;26642;55.766;37.828;2023-07-02T09:04:24;27.20;59.10
40636;DHT22;26642;55.766;37.828;2023-07-02T09:07:03;27.20;59.40
40636;DHT22;26642;55.766;37.828;2023-07-02T09:09:29;27.10;58.90
40636;DHT22;26642;55.766;37.828;2023-07-02T09:11:55;27.20;59.40
40636;DHT22;26642;55.766;37.828;2023-07-02T09:14:29;27.20;59.40
40636;DHT22;26642;55.766;37.828;2023-07-02T09:17:03;27.20;59.50
40636;DHT22;26642;55.766;37.828;2023-07-02T09:19:29;27.10;59.60
40636;DHT22;26642;55.766;37.828;2023-07-02T09:21:57;27.20;59.80
40636;DHT22;26642;55.766;37.828;2023-07-02T09:24:25;27.20;59.50
40636;DHT22;26642;55.766;37.828;2023-07-02T09:26:54;27.10;59.60
40636;DHT22;26642;55.766;37.828;2023-07-02T09:29:30;27.10;59.70
40636;DHT22;26642;55.766;37.828;2023-07-02T09:32:01;27.10;59.70
40636;DHT22;26642;55.766;37.828;2023-07-02T09:34:28;27.10;59.70
40636;DHT22;26642;55.766;37.828;2023-07-02T09:36:55;27.10;60.00
40636;DHT22;26642;55.766;37.828;2023-07-02T09:39:29;27.00;59.90
40636;DHT22;26642;55.766;37.828;2023-07-02T09:41:56;27.00;59.60
40636;DHT22;26642;55.766;37.828;2023-07-02T09:44:30;27.00;60.10
40636;DHT22;26642;55.766;37.828;2023-07-02T09:47:03;27.00;59.90
40636;DHT22;26642;55.766;37.828;2023-07-02T09:52:07;27.00;60.10
40636;DHT22;26642;55.766;37.828;2023-07-02T09:54:34;27.00;60.10
40636;DHT22;26642;55.766;37.828;2023-07-02T09:57:00;26.90;60.10
40636;DHT22;26642;55.766;37.828;2023-07-02T09:59:27;26.90;60.00
40636;DHT22;26642;55.766;37.828;2023-07-02T10:01:54;26.90;59.70
40636;DHT22;26642;55.766;37.828;2023-07-02T10:04:21;26.90;59.70
40636;DHT22;26642;55.766;37.828;2023-07-02T10:06:56;26.80;59.60
40636;DHT22;26642;55.766;37.828;2023-07-02T10:09:36;26.80;59.60
40636;DHT22;26642;55.766;37.828;2023-07-02T10:12:14;26.90;59.50
40636;DHT22;26642;55.766;37.828;2023-07-02T10:14:41;26.90;59.40
40636;DHT22;26642;55.766;37.828;2023-07-02T10:17:08;26.70;57.30
40636;DHT22;26642;55.766;37.828;2023-07-02T10:19:33;26.70;58.60
40636;DHT22;26642;55.766;37.828;2023-07-02T10:22:04;26.80;59.20
40636;DHT22;26642;55.766;37.828;2023-07-02T10:24:30;26.70;58.40
40636;DHT22;26642;55.766;37.828;2023-07-02T10:27:01;26.70;56.90
40636;DHT22;26642;55.766;37.828;2023-07-02T10:29:28;26.70;57.10
40636;DHT22;26642;55.766;37.828;2023-07-02T10:31:56;26.60;57.10
40636;DHT22;26642;55.766;37.828;2023-07-02T10:36:55;26.70;58.60
40636;DHT22;26642;55.766;37.828;2023-07-02T10:39:21;26.70;58.90
40636;DHT22;26642;55.766;37.828;2023-07-02T10:41:47;26.60;56.90
40636;DHT22;26642;55.766;37.828;2023-07-02T10:44:12;26.60;57.30
40636;DHT22;26642;55.766;37.828;2023-07-02T10:46:48;26.50;57.60
40636;DHT22;26642;55.766;37.828;2023-07-02T10:49:17;26.50;56.80
40636;DHT22;26642;55.766;37.828;2023-07-02T10:51:43;26.50;56.00
40636;DHT22;26642;55.766;37.828;2023-07-02T10:54:09;26.50;56.20
40636;DHT22;26642;55.766;37.828;2023-07-02T10:56:35;26.50;58.20
40636;DHT22;26642;55.766;37.828;2023-07-02T10:59:01;26.40;56.90
40636;DHT22;26642;55.766;37.828;2023-07-02T11:01:31;26.40;56.00
40636;DHT22;26642;55.766;37.828;2023-07-02T11:04:02;26.40;57.10
40636;DHT22;26642;55.766;37.828;2023-07-02T11:06:29;26.40;57.10
40636;DHT22;26642;55.766;37.828;2023-07-02T11:08:56;26.40;58.70
40636;DHT22;26642;55.766;37.828;2023-07-02T11:11:23;26.50;59.00
40636;DHT22;26642;55.766;37.828;2023-07-02T11:13:50;26.50;59.20
40636;DHT22;26642;55.766;37.828;2023-07-02T11:16:23;26.50;58.90
40636;DHT22;26642;55.766;37.828;2023-07-02T11:19:16;26.50;57.20
40636;DHT22;26642;55.766;37.828;2023-07-02T11:21:54;26.40;57.00
40636;DHT22;26642;55.766;37.828;2023-07-02T11:24:34;26.40;55.70
40636;DHT22;26642;55.766;37.828;2023-07-02T11:27:02;26.40;58.00
40636;DHT22;26642;55.766;37.828;2023-07-02T11:29:29;26.50;58.40
40636;DHT22;26642;55.766;37.828;2023-07-02T11:32:09;26.40;57.00
40636;DHT22;26642;55.766;37.828;2023-07-02T11:34:36;26.40;55.80
40636;DHT22;26642;55.766;37.828;2023-07-02T11:37:03;26.40;56.80
40636;DHT22;26642;55.766;37.828;2023-07-02T11:39:30;26.40;55.90
40636;DHT22;26642;55.766;37.828;2023-07-02T11:41:56;26.40;56.50
40636;DHT22;26642;55.766;37.828;2023-07-02T11:44:23;26.40;56.50
40636;DHT22;26642;55.766;37.828;2023-07-02T11:46:49;26.40;57.30
40636;DHT22;26642;55.766;37.828;2023-07-02T11:49:15;26.40;56.70
40636;DHT22;26642;55.766;37.828;2023-07-02T11:51:42;26.30;58.00
40636;DHT22;26642;55.766;37.828;2023-07-02T11:54:14;26.30;56.80
40636;DHT22;26642;55.766;37.828;2023-07-02T11:56:40;26.30;56.10
40636;DHT22;26642;55.766;37.828;2023-07-02T11:59:08;26.30;55.90
40636;DHT22;26642;55.766;37.828;2023-07-02T12:01:34;26.30;55.60
40636;DHT22;26642;55.766;37.828;2023-07-02T12:04:00;26.30;55.10
40636;DHT22;26642;55.766;37.828;2023-07-02T12:06:26;26.30;55.80
40636;DHT22;26642;55.766;37.828;2023-07-02T12:08:52;26.20;55.20
40636;DHT22;26642;55.766;37.828;2023-07-02T12:11:18;26.20;55.20
40636;DHT22;26642;55.766;37.828;2023-07-02T12:13:44;26.20;54.80
40636;DHT22;26642;55.766;37.828;2023-07-02T12:16:10;26.30;54.30
40636;DHT22;26642;55.766;37.828;2023-07-02T12:18:36;26.20;53.90
40636;DHT22;26642;55.766;37.828;2023-07-02T12:21:02;26.20;55.00
40636;DHT22;26642;55.766;37.828;2023-07-02T12:23:28;26.20;54.80
40636;DHT22;26642;55.766;37.828;2023-07-02T12:25:54;26.20;54.80
40636;DHT22;26642;55.766;37.828;2023-07-02T12:28:20;26.20;56.00
40636;DHT22;26642;55.766;37.828;2023-07-02T12:30:46;26.30;56.70
40636;DHT22;26642;55.766;37.828;2023-07-02T12:33:12;26.20;56.30
40636;DHT22;26642;55.766;37.828;2023-07-02T12:35:38;26.20;54.40
40636;DHT22;26642;55.766;37.828;2023-07-02T12:38:04;26.30;55.00
40636;DHT22;26642;55.766;37.828;2023-07-02T12:40:32;26.20;52.80
40636;DHT22;26642;55.766;37.828;2023-07-02T12:42:58;26.20;53.50
40636;DHT22;26642;55.766;37.828;2023-07-02T12:45:24;26.20;52.50
40636;DHT22;26642;55.766;37.828;2023-07-02T12:47:50;26.20;53.30
40636;DHT22;26642;55.766;37.828;2023-07-02T12:50:16;26.20;52.50
40636;DHT22;26642;55.766;37.828;2023-07-02T12:52:42;26.20;52.40
40636;DHT22;26642;55.766;37.828;2023-07-02T12:55:08;26.20;52.60
40636;DHT22;26642;55.766;37.828;2023-07-02T12:57:35;26.20;52.00
40636;DHT22;26642;55.766;37.828;2023-07-02T13:00:02;26.10;52.10
40636;DHT22;26642;55.766;37.828;2023-07-02T13:02:30;26.10;51.90
40636;DHT22;26642;55.766;37.828;2023-07-02T13:04:56;26.10;52.10
40636;DHT22;26642;55.766;37.828;2023-07-02T13:07:22;26.20;55.70
40636;DHT22;26642;55.766;37.828;2023-07-02T13:09:49;26.10;55.90
40636;DHT22;26642;55.766;37.828;2023-07-02T13:12:15;26.10;54.80
40636;DHT22;26642;55.766;37.828;2023-07-02T13:14:42;26.10;56.50
40636;DHT22;26642;55.766;37.828;2023-07-02T13:17:08;26.10;54.90
40636;DHT22;26642;55.766;37.828;2023-07-02T13:19:34;26.10;54.50
40636;DHT22;26642;55.766;37.828;2023-07-02T13:22:01;26.00;54.20
40636;DHT22;26642;55.766;37.828;2023-07-02T13:24:32;26.00;54.10
40636;DHT22;26642;55.766;37.828;2023-07-02T13:27:00;26.00;53.00
40636;DHT22;26642;55.766;37.828;2023-07-02T13:29:26;26.00;53.10
40636;DHT22;26642;55.766;37.828;2023-07-02T13:31:52;26.00;53.40
40636;DHT22;26642;55.766;37.828;2023-07-02T13:34:18;26.00;53.20
40636;DHT22;26642;55.766;37.828;2023-07-02T13:36:44;25.90;52.50
40636;DHT22;26642;55.766;37.828;2023-07-02T13:39:10;25.90;52.50
40636;DHT22;26642;55.766;37.828;2023-07-02T13:41:36;25.90;54.40
40636;DHT22;26642;55.766;37.828;2023-07-02T13:44:02;26.00;55.30
40636;DHT22;26642;55.766;37.828;2023-07-02T13:46:28;26.00;54.30
40636;DHT22;26642;55.766;37.828;2023-07-02T13:48:54;26.00;53.40
40636;DHT22;26642;55.766;37.828;2023-07-02T13:51:20;25.90;53.10
40636;DHT22;26642;55.766;37.828;2023-07-02T13:53:46;25.90;53.50
40636;DHT22;26642;55.766;37.828;2023-07-02T13:56:12;25.90;53.00
40636;DHT22;26642;55.766;37.828;2023-07-02T14:01:22;25.90;55.40
40636;DHT22;26642;55.766;37.828;2023-07-02T14:03:49;26.00;54.90
40636;DHT22;26642;55.766;37.828;2023-07-02T14:06:15;25.90;54.00
40636;DHT22;26642;55.766;37.828;2023-07-02T14:08:41;25.90;53.50
40636;DHT22;26642;55.766;37.828;2023-07-02T14:11:07;25.80;53.00
40636;DHT22;26642;55.766;37.828;2023-07-02T14:13:33;25.90;54.60
40636;DHT22;26642;55.766;37.828;2023-07-02T14:15:59;25.90;54.00
40636;DHT22;26642;55.766;37.828;2023-07-02T14:18:25;25.90;55.80
40636;DHT22;26642;55.766;37.828;2023-07-02T14:20:51;25.90;54.50
40636;DHT22;26642;55.766;37.828;2023-07-02T14:23:17;25.90;54.30
40636;DHT22;26642;55.766;37.828;2023-07-02T14:25:43;25.80;54.20
40636;DHT22;26642;55.766;37.828;2023-07-02T14:28:09;25.80;52.60
40636;DHT22;26642;55.766;37.828;2023-07-02T14:30:36;25.80;54.20
40636;DHT22;26642;55.766;37.828;2023-07-02T14:33:02;25.80;56.10
40636;DHT22;26642;55.766;37.828;2023-07-02T14:35:29;25.80;54.90
40636;DHT22;26642;55.766;37.828;2023-07-02T14:37:57;25.80;54.40
40636;DHT22;26642;55.766;37.828;2023-07-02T14:40:23;25.80;54.00
40636;DHT22;26642;55.766;37.828;2023-07-02T14:42:49;25.80;53.10
40636;DHT22;26642;55.766;37.828;2023-07-02T14:45:15;25.80;52.60
40636;DHT22;26642;55.766;37.828;2023-07-02T14:47:42;25.70;52.50
40636;DHT22;26642;55.766;37.828;2023-07-02T14:50:08;25.70;52.20
40636;DHT22;26642;55.766;37.828;2023-07-02T14:52:34;25.70;51.50
40636;DHT22;26642;55.766;37.828;2023-07-02T14:55:00;25.70;52.20
40636;DHT22;26642;55.766;37.828;2023-07-02T14:57:27;25.70;52.80
40636;DHT22;26642;55.766;37.828;2023-07-02T14:59:53;25.70;54.20
40636;DHT22;26642;55.766;37.828;2023-07-02T15:02:20;25.80;53.90
40636;DHT22;26642;55.766;37.828;2023-07-02T15:04:45;25.70;53.00
40636;DHT22;26642;55.766;37.828;2023-07-02T15:07:11;25.80;54.00
40636;DHT22;26642;55.766;37.828;2023-07-02T15:09:37;25.70;55.10
40636;DHT22;26642;55.766;37.828;2023-07-02T15:12:03;25.80;54.90
40636;DHT22;26642;55.766;37.828;2023-07-02T15:14:29;25.70;53.00
40636;DHT22;26642;55.766;37.828;2023-07-02T15:16:55;25.70;53.10
40636;DHT22;26642;55.766;37.828;2023-07-02T15:19:21;25.70;53.20
40636;DHT22;26642;55.766;37.828;2023-07-02T15:21:47;25.70;54.20